createdAt,value
2022-12-17T00:01:10.496Z,33.63
2022-12-17T00:03:57.303Z,33.70
2022-12-17T00:06:43.628Z,32.67
2022-12-17T00:09:30.197Z,32.97
2022-12-17T00:12:16.182Z,36.92
2022-12-17T00:15:02.495Z,33.78
2022-12-17T00:17:49.339Z,33.88
2022-12-17T00:20:35.646Z,34.53
2022-12-17T00:23:22.700Z,34.63
2022-12-17T00:26:15.879Z,35.17
2022-12-17T00:29:02.317Z,34.70
2022-12-17T00:31:49.442Z,35.40
2022-12-17T00:34:35.630Z,35.00
2022-12-17T00:37:22.110Z,34.33
2022-12-17T00:40:08.738Z,34.40
2022-12-17T00:42:56.382Z,37.30
2022-12-17T00:45:42.967Z,37.17
2022-12-17T00:48:29.074Z,36.50
2022-12-17T00:51:15.548Z,35.58
2022-12-17T00:54:02.698Z,37.75
2022-12-17T00:56:49.171Z,38.42
2022-12-17T00:59:35.220Z,36.67
2022-12-17T01:03:55.208Z,38.53
2022-12-17T01:06:59.897Z,38.45
2022-12-17T01:09:49.819Z,37.22
2022-12-17T01:12:36.542Z,38.90
2022-12-17T01:15:23.485Z,37.78
2022-12-17T01:18:09.814Z,38.92
2022-12-17T01:20:57.189Z,40.45
2022-12-17T01:23:43.515Z,38.08
2022-12-17T01:26:30.801Z,38.63
2022-12-17T01:29:18.115Z,40.00
2022-12-17T01:32:04.589Z,40.03
2022-12-17T01:34:50.937Z,37.00
2022-12-17T01:37:37.894Z,38.92
2022-12-17T01:40:24.937Z,38.10
2022-12-17T01:43:11.246Z,38.50
2022-12-17T01:45:58.713Z,38.75
2022-12-17T01:48:49.167Z,37.88
2022-12-17T01:51:36.145Z,39.88
2022-12-17T01:54:22.989Z,39.50
2022-12-17T01:57:09.479Z,38.67
2022-12-17T02:00:02.518Z,38.58
2022-12-17T02:03:01.265Z,38.00
2022-12-17T02:05:59.578Z,37.75
2022-12-17T02:08:49.593Z,37.67
2022-12-17T02:11:48.130Z,36.78
2022-12-17T02:14:49.345Z,35.17
2022-12-17T02:17:38.638Z,34.97
2022-12-17T02:20:32.541Z,31.58
2022-12-17T02:23:25.311Z,33.03
2022-12-17T02:26:14.946Z,32.10
2022-12-17T02:29:06.218Z,31.17
2022-12-17T02:31:52.824Z,32.28
2022-12-17T02:34:39.516Z,30.45
2022-12-17T02:37:25.569Z,31.30
2022-12-17T02:40:11.733Z,33.22
2022-12-17T02:42:58.002Z,31.40
2022-12-17T02:45:48.284Z,31.48
2022-12-17T02:48:37.048Z,31.42
2022-12-17T02:51:23.481Z,31.40
2022-12-17T02:54:13.379Z,33.28
2022-12-17T02:57:00.075Z,33.33
2022-12-17T02:59:46.388Z,32.05
2022-12-17T03:02:35.731Z,34.03
2022-12-17T03:05:43.845Z,31.70
2022-12-17T03:08:28.711Z,32.83
2022-12-17T03:11:16.548Z,34.72
2022-12-17T03:14:02.727Z,33.50
2022-12-17T03:16:49.474Z,34.42
2022-12-17T03:19:35.465Z,33.63
2022-12-17T03:22:21.901Z,33.15
2022-12-17T03:25:08.897Z,35.83
2022-12-17T03:27:56.150Z,32.35
2022-12-17T03:30:48.525Z,34.35
2022-12-17T03:33:36.037Z,36.08
2022-12-17T03:36:22.447Z,35.53
2022-12-17T03:39:08.909Z,35.78
2022-12-17T03:41:54.626Z,36.50
2022-12-17T03:44:40.782Z,35.15
2022-12-17T03:47:27.235Z,37.00
2022-12-17T03:50:14.591Z,38.35
2022-12-17T03:53:01.048Z,35.53
2022-12-17T03:55:49.212Z,36.17
2022-12-17T03:58:35.210Z,36.25
2022-12-17T04:01:25.072Z,35.55
2022-12-17T04:04:11.473Z,38.03
2022-12-17T04:06:58.292Z,35.50
2022-12-17T04:09:44.615Z,36.70
2022-12-17T04:12:31.740Z,37.33
2022-12-17T04:15:20.131Z,36.47
2022-12-17T04:18:06.963Z,36.60
2022-12-17T04:20:52.962Z,36.72
2022-12-17T04:23:39.569Z,36.58
2022-12-17T04:26:25.798Z,37.20
2022-12-17T04:29:12.180Z,36.92
2022-12-17T04:31:58.498Z,36.78
2022-12-17T04:34:45.738Z,35.92
2022-12-17T04:37:31.860Z,37.40
2022-12-17T04:40:19.625Z,38.30
2022-12-17T04:43:06.333Z,37.08
2022-12-17T04:45:53.310Z,37.97
2022-12-17T04:48:42.719Z,37.97
2022-12-17T04:51:36.377Z,37.80
2022-12-17T04:54:30.147Z,38.65
2022-12-17T04:57:16.589Z,38.50
2022-12-17T05:00:06.373Z,37.50
2022-12-17T05:02:53.569Z,39.08
2022-12-17T05:05:39.644Z,38.60
2022-12-17T05:08:26.538Z,38.22
2022-12-17T05:11:12.267Z,37.42
2022-12-17T05:13:58.957Z,37.50
2022-12-17T05:16:45.360Z,39.50
2022-12-17T05:19:31.866Z,37.05
2022-12-17T05:22:18.152Z,38.67
2022-12-17T05:25:15.382Z,38.55
2022-12-17T05:28:01.769Z,37.85
2022-12-17T05:30:49.019Z,38.08
2022-12-17T05:33:35.557Z,37.80
2022-12-17T05:36:22.697Z,37.70
2022-12-17T05:39:09.433Z,38.25
2022-12-17T05:41:56.457Z,36.60
2022-12-17T05:44:42.696Z,37.88
2022-12-17T05:47:29.003Z,37.58
2022-12-17T05:50:15.090Z,36.85
2022-12-17T05:53:01.585Z,37.75
2022-12-17T05:55:48.146Z,37.88
2022-12-17T05:58:34.273Z,37.17
2022-12-17T06:01:21.664Z,38.83
2022-12-17T06:04:12.814Z,37.67
2022-12-17T06:06:59.202Z,36.80
2022-12-17T06:09:45.480Z,36.83
2022-12-17T06:12:31.855Z,34.83
2022-12-17T06:15:19.363Z,38.03
2022-12-17T06:18:16.693Z,36.95
2022-12-17T06:21:05.715Z,37.33
2022-12-17T06:23:51.526Z,39.88
2022-12-17T06:26:39.825Z,37.30
2022-12-17T06:29:26.198Z,41.95
2022-12-17T06:32:13.919Z,42.20
2022-12-17T06:35:00.123Z,42.38
2022-12-17T06:37:46.873Z,40.35
2022-12-17T06:40:35.727Z,42.25
2022-12-17T06:43:21.998Z,40.20
2022-12-17T06:46:11.635Z,42.85
2022-12-17T06:48:58.076Z,41.60
2022-12-17T06:51:43.889Z,43.50
2022-12-17T06:54:29.843Z,42.97
2022-12-17T06:57:15.998Z,44.55
2022-12-17T07:00:02.432Z,42.50
2022-12-17T07:02:49.200Z,41.97
2022-12-17T07:05:35.563Z,42.85
2022-12-17T07:08:21.918Z,42.47
2022-12-17T07:11:10.964Z,43.47
2022-12-17T07:13:57.183Z,41.15
2022-12-17T07:16:44.297Z,41.38
2022-12-17T07:19:31.188Z,43.53
2022-12-17T07:22:20.640Z,41.97
2022-12-17T07:25:07.154Z,42.42
2022-12-17T07:27:53.523Z,40.60
2022-12-17T07:30:44.087Z,42.38
2022-12-17T07:33:30.715Z,43.35
2022-12-17T07:36:16.905Z,40.40
2022-12-17T07:39:04.025Z,41.03
2022-12-17T07:41:50.509Z,42.78
2022-12-17T07:44:36.571Z,43.17
2022-12-17T07:47:22.968Z,43.90
2022-12-17T07:50:09.226Z,41.60
2022-12-17T07:52:55.278Z,41.70
2022-12-17T07:55:42.431Z,45.35
2022-12-17T07:58:29.709Z,42.90
2022-12-17T08:01:19.647Z,43.85
2022-12-17T08:04:06.341Z,43.13
2022-12-17T08:06:58.417Z,44.03
2022-12-17T08:09:47.048Z,40.97
2022-12-17T08:12:35.006Z,41.35
2022-12-17T08:15:21.344Z,43.08
2022-12-17T08:18:08.530Z,44.83
2022-12-17T08:20:55.300Z,44.17
2022-12-17T08:23:42.117Z,43.67
2022-12-17T08:26:28.157Z,41.88
2022-12-17T08:29:15.621Z,41.55
2022-12-17T08:32:01.698Z,42.97
2022-12-17T08:34:48.207Z,43.38
2022-12-17T08:37:34.598Z,41.72
2022-12-17T08:40:20.842Z,41.08
2022-12-17T08:43:08.110Z,41.80
2022-12-17T08:45:55.182Z,41.05
2022-12-17T08:48:41.051Z,41.28
2022-12-17T08:51:27.364Z,41.60
2022-12-17T08:54:13.858Z,40.25
2022-12-17T08:57:00.131Z,41.95
2022-12-17T08:59:46.614Z,40.35
2022-12-17T09:02:33.258Z,38.20
2022-12-17T09:05:22.018Z,40.60
2022-12-17T09:08:19.348Z,39.40
2022-12-17T09:11:05.748Z,40.42
2022-12-17T09:13:52.397Z,39.50
2022-12-17T09:16:40.297Z,39.30
2022-12-17T09:19:27.557Z,38.25
2022-12-17T09:22:15.291Z,39.67
2022-12-17T09:25:01.976Z,40.97
2022-12-17T09:27:48.007Z,40.17
2022-12-17T09:30:34.251Z,41.03
2022-12-17T09:33:20.600Z,39.55
2022-12-17T09:36:06.770Z,41.47
2022-12-17T09:38:55.674Z,41.88
2022-12-17T09:41:47.003Z,40.95
2022-12-17T09:44:52.643Z,40.75
2022-12-17T09:47:48.011Z,41.85
2022-12-17T09:50:35.071Z,40.17
2022-12-17T09:53:23.092Z,40.38
2022-12-17T09:56:12.535Z,42.40
2022-12-17T09:58:59.338Z,41.58
2022-12-17T10:01:53.727Z,39.42
2022-12-17T10:04:42.701Z,42.72
2022-12-17T10:07:32.723Z,42.83
2022-12-17T10:10:20.660Z,41.25
2022-12-17T10:13:07.813Z,42.53
2022-12-17T10:15:55.020Z,44.05
2022-12-17T10:18:41.526Z,41.88
2022-12-17T10:21:43.704Z,42.10
2022-12-17T10:24:30.169Z,43.55
2022-12-17T10:27:21.230Z,42.00
2022-12-17T10:30:08.155Z,41.58
2022-12-17T10:32:54.468Z,41.92
2022-12-17T10:35:42.842Z,41.25
2022-12-17T10:38:30.259Z,42.22
2022-12-17T10:41:17.016Z,42.92
2022-12-17T10:44:05.190Z,43.30
2022-12-17T10:46:53.477Z,42.88
2022-12-17T10:50:00.418Z,41.83
2022-12-17T10:52:51.811Z,41.20
2022-12-17T10:55:49.838Z,44.47
2022-12-17T10:58:38.931Z,42.33
2022-12-17T11:01:46.559Z,41.33
2022-12-17T11:04:38.966Z,42.80
2022-12-17T11:07:26.139Z,43.03
2022-12-17T11:10:14.714Z,41.33
2022-12-17T11:13:03.366Z,41.80
2022-12-17T11:16:02.018Z,42.13
2022-12-17T11:19:03.903Z,40.65
2022-12-17T11:21:59.907Z,42.80
2022-12-17T11:25:09.050Z,40.05
2022-12-17T11:28:04.249Z,41.72
2022-12-17T11:30:59.204Z,41.60
2022-12-17T11:33:56.038Z,41.50
2022-12-17T11:37:18.354Z,41.17
2022-12-17T11:40:18.933Z,42.05
2022-12-17T11:43:33.914Z,40.58
2022-12-17T11:46:33.898Z,42.33
2022-12-17T11:49:31.021Z,42.97
2022-12-17T11:52:42.656Z,40.88
2022-12-17T11:55:39.870Z,43.35
2022-12-17T11:58:53.482Z,41.58
2022-12-17T12:02:20.300Z,41.30
2022-12-17T12:05:30.022Z,39.40
2022-12-17T12:08:31.580Z,41.13
2022-12-17T12:11:38.681Z,42.65
2022-12-17T12:14:37.465Z,41.85
2022-12-17T12:17:42.373Z,42.53
2022-12-17T12:20:57.620Z,41.40
2022-12-17T12:24:14.170Z,42.03
2022-12-17T12:27:05.397Z,43.60
2022-12-17T12:30:20.339Z,41.50
2022-12-17T12:33:22.352Z,42.72
2022-12-17T12:36:12.398Z,39.97
2022-12-17T12:39:02.514Z,41.20
2022-12-17T12:42:01.574Z,40.67
2022-12-17T12:45:02.699Z,38.67
2022-12-17T12:48:11.958Z,42.35
2022-12-17T12:51:33.757Z,40.22
2022-12-17T12:54:38.518Z,38.88
2022-12-17T12:57:44.506Z,39.53
2022-12-17T13:00:44.783Z,36.30
2022-12-17T13:03:58.347Z,38.88
2022-12-17T13:06:43.948Z,38.53
2022-12-17T13:09:32.204Z,39.05
2022-12-17T13:12:02.749Z,38.03
2022-12-17T13:14:36.094Z,40.30
2022-12-17T13:17:22.976Z,39.60
2022-12-17T13:20:05.137Z,40.50
2022-12-17T13:22:36.666Z,39.88
2022-12-17T13:25:20.821Z,40.42
2022-12-17T13:27:51.465Z,38.95
2022-12-17T13:30:31.567Z,38.47
2022-12-17T13:33:07.855Z,40.90
2022-12-17T13:35:44.001Z,38.45
2022-12-17T13:38:30.033Z,39.63
2022-12-17T13:41:11.586Z,38.45
2022-12-17T13:43:49.818Z,36.72
2022-12-17T13:46:49.806Z,36.97
2022-12-17T13:50:32.347Z,37.50
2022-12-17T13:52:48.346Z,37.38
2022-12-17T13:55:34.321Z,36.28
2022-12-17T13:58:01.883Z,36.35
2022-12-17T14:00:31.162Z,35.53
2022-12-17T14:03:12.832Z,36.55
2022-12-17T14:05:44.700Z,37.38
2022-12-17T14:08:20.972Z,36.78
2022-12-17T14:11:14.562Z,38.15
2022-12-17T14:13:44.298Z,37.70
2022-12-17T14:16:20.038Z,37.28
2022-12-17T14:18:54.550Z,36.10
2022-12-17T14:21:27.149Z,37.25
2022-12-17T14:23:55.795Z,37.35
2022-12-17T14:26:22.972Z,34.17
2022-12-17T14:28:53.010Z,33.42
2022-12-17T14:31:29.257Z,34.33
2022-12-17T14:34:13.648Z,32.67
2022-12-17T14:36:43.060Z,34.75
2022-12-17T14:39:31.715Z,35.67
2022-12-17T14:42:25.467Z,35.58
2022-12-17T14:45:03.970Z,35.40
2022-12-17T14:47:36.644Z,34.53
2022-12-17T14:50:13.950Z,36.58
2022-12-17T14:52:50.572Z,35.95
2022-12-17T14:55:27.154Z,37.40
2022-12-17T14:58:12.879Z,39.58
2022-12-17T15:03:40.784Z,39.30
2022-12-17T15:06:11.292Z,36.70
2022-12-17T15:08:48.207Z,36.75
2022-12-17T15:11:23.426Z,35.25
2022-12-17T15:13:56.065Z,35.92
2022-12-17T15:16:24.449Z,35.42
2022-12-17T15:18:51.679Z,37.50
2022-12-17T15:21:20.035Z,36.20
2022-12-17T15:23:49.252Z,37.33
2022-12-17T15:26:17.964Z,38.00
2022-12-17T15:28:45.983Z,41.67
2022-12-17T15:31:14.419Z,41.25
2022-12-17T15:33:42.163Z,42.88
2022-12-17T15:36:12.580Z,42.08
2022-12-17T15:38:40.491Z,44.10
2022-12-17T15:41:26.926Z,42.63
2022-12-17T15:43:54.380Z,41.17
2022-12-17T15:46:21.811Z,42.10
2022-12-17T15:48:50.484Z,41.45
2022-12-17T15:51:19.909Z,39.15
2022-12-17T15:53:49.624Z,38.95
2022-12-17T15:56:28.090Z,37.35
2022-12-17T15:58:59.184Z,38.08
2022-12-17T16:01:26.708Z,36.25
2022-12-17T16:03:55.564Z,37.13
2022-12-17T16:06:22.894Z,36.67
2022-12-17T16:08:50.263Z,38.28
2022-12-17T16:11:18.036Z,36.97
2022-12-17T16:13:45.419Z,36.42
2022-12-17T16:16:12.655Z,38.47
2022-12-17T16:18:40.326Z,36.28
2022-12-17T16:21:09.370Z,39.33
2022-12-17T16:23:36.496Z,37.88
2022-12-17T16:26:09.141Z,36.08
2022-12-17T16:28:37.181Z,36.45
2022-12-17T16:31:15.970Z,37.72
2022-12-17T16:33:47.914Z,37.65
2022-12-17T16:36:19.574Z,36.83
2022-12-17T16:38:52.591Z,35.83
2022-12-17T16:41:22.239Z,35.60
2022-12-17T16:43:53.271Z,36.97
2022-12-17T16:46:32.586Z,38.58
2022-12-17T16:49:25.578Z,38.25
2022-12-17T16:51:54.141Z,37.45
2022-12-17T16:54:26.042Z,40.17
2022-12-17T16:56:54.393Z,37.63
2022-12-17T16:59:23.639Z,38.20
2022-12-17T17:01:52.691Z,40.05
2022-12-17T17:04:24.553Z,38.70
2022-12-17T17:06:58.522Z,38.10
2022-12-17T17:09:27.040Z,38.55
2022-12-17T17:11:59.108Z,37.67
2022-12-17T17:14:26.494Z,37.35
2022-12-17T17:16:53.785Z,37.13
2022-12-17T17:19:23.737Z,36.40
2022-12-17T17:21:54.903Z,37.40
2022-12-17T17:24:25.615Z,36.55
2022-12-17T17:26:55.064Z,36.63
2022-12-17T17:29:22.698Z,34.10
2022-12-17T17:32:09.873Z,35.75
2022-12-17T17:34:39.564Z,35.35
2022-12-17T17:37:06.712Z,36.03
2022-12-17T17:39:34.517Z,37.65
2022-12-17T17:42:02.178Z,37.75
2022-12-17T17:44:29.214Z,37.53
2022-12-17T17:47:00.674Z,38.40
2022-12-17T17:49:30.058Z,38.20
2022-12-17T17:52:09.530Z,39.28
2022-12-17T17:54:39.829Z,38.13
2022-12-17T17:57:07.464Z,40.25
2022-12-17T17:59:34.868Z,37.70
2022-12-17T18:02:03.875Z,36.72
2022-12-17T18:04:32.040Z,36.83
2022-12-17T18:09:49.177Z,35.58
2022-12-17T18:12:35.234Z,36.30
2022-12-17T18:18:09.659Z,34.50
2022-12-17T18:20:40.036Z,35.60
2022-12-17T18:23:09.237Z,35.80
2022-12-17T18:25:37.872Z,34.92
2022-12-17T18:28:05.639Z,34.60
2022-12-17T18:30:33.278Z,33.28
2022-12-17T18:33:03.668Z,33.08
2022-12-17T18:35:31.435Z,32.35
2022-12-17T18:37:58.856Z,34.17
2022-12-17T18:40:31.554Z,32.38
2022-12-17T18:43:20.193Z,35.88
2022-12-17T18:45:48.057Z,35.38
2022-12-17T18:48:15.926Z,31.95
2022-12-17T18:50:43.509Z,33.22
2022-12-17T18:53:11.207Z,30.77
2022-12-17T18:55:42.179Z,31.35
2022-12-17T18:58:10.526Z,32.67
2022-12-17T19:00:38.920Z,31.80
2022-12-17T19:03:07.954Z,33.10
2022-12-17T19:05:38.607Z,34.00
2022-12-17T19:08:09.598Z,32.97
2022-12-17T19:10:38.402Z,35.13
2022-12-17T19:13:05.930Z,34.30
2022-12-17T19:15:33.737Z,35.35
2022-12-17T19:18:01.562Z,34.20
2022-12-17T19:20:29.284Z,33.35
2022-12-17T19:22:56.892Z,33.40
2022-12-17T19:25:24.485Z,33.95
2022-12-17T19:27:52.140Z,32.63
2022-12-17T19:30:19.869Z,30.92
2022-12-17T19:32:48.415Z,33.92
2022-12-17T19:35:17.927Z,32.97
2022-12-17T19:37:45.588Z,33.83
2022-12-17T19:40:13.480Z,33.22
2022-12-17T19:42:42.392Z,33.58
2022-12-17T19:45:11.306Z,37.25
2022-12-17T19:47:44.400Z,32.28
2022-12-17T19:50:12.290Z,34.47
2022-12-17T19:52:39.803Z,33.05
2022-12-17T19:55:07.647Z,39.00
2022-12-17T19:57:35.842Z,38.60
2022-12-17T20:00:03.738Z,35.15
2022-12-17T20:02:40.442Z,32.80
2022-12-17T20:05:08.142Z,31.77
2022-12-17T20:07:35.958Z,31.13
2022-12-17T20:10:04.013Z,34.35
2022-12-17T20:12:32.277Z,34.75
2022-12-17T20:15:00.054Z,32.83
2022-12-17T20:17:27.935Z,33.05
2022-12-17T20:19:57.940Z,33.42
2022-12-17T20:22:25.908Z,33.72
2022-12-17T20:24:54.912Z,33.75
2022-12-17T20:27:22.345Z,33.97
2022-12-17T20:29:50.189Z,35.28
2022-12-17T20:32:20.981Z,33.85
2022-12-17T20:34:49.440Z,33.38
2022-12-17T20:37:20.211Z,33.92
2022-12-17T20:39:48.084Z,35.40
2022-12-17T20:42:17.972Z,33.60
2022-12-17T20:44:51.561Z,33.50
2022-12-17T20:47:20.815Z,32.10
2022-12-17T20:49:49.893Z,32.58
2022-12-17T20:52:19.530Z,31.85
2022-12-17T20:54:47.942Z,32.55
2022-12-17T20:57:15.699Z,32.45
2022-12-17T20:59:43.303Z,31.65
2022-12-17T21:02:11.563Z,32.38
2022-12-17T21:04:40.258Z,32.70
2022-12-17T21:07:07.951Z,31.90
2022-12-17T21:09:35.987Z,33.65
2022-12-17T21:12:03.691Z,32.22
2022-12-17T21:14:35.460Z,31.65
2022-12-17T21:17:04.940Z,32.58
2022-12-17T21:19:33.155Z,32.72
2022-12-17T21:22:01.017Z,34.95
2022-12-17T21:24:28.866Z,33.53
2022-12-17T21:26:56.589Z,35.00
2022-12-17T21:29:24.413Z,35.38
2022-12-17T21:31:52.766Z,34.38
2022-12-17T21:34:25.510Z,33.90
2022-12-17T21:36:57.792Z,34.00
2022-12-17T21:39:27.785Z,32.90
2022-12-17T21:42:15.945Z,32.30
2022-12-17T21:44:43.516Z,33.22
2022-12-17T21:47:12.019Z,33.72
2022-12-17T21:49:39.501Z,34.22
2022-12-17T21:52:06.934Z,34.40
2022-12-17T21:54:38.611Z,35.40
2022-12-17T21:57:08.188Z,36.60
2022-12-17T21:59:35.581Z,34.83
2022-12-17T22:02:03.300Z,36.15
2022-12-17T22:04:31.424Z,34.78
2022-12-17T22:07:04.366Z,36.22
2022-12-17T22:10:03.902Z,35.67
2022-12-17T22:12:53.541Z,35.15
2022-12-17T22:15:21.233Z,35.30
2022-12-17T22:17:50.610Z,34.38
2022-12-17T22:20:19.549Z,35.70
2022-12-17T22:22:50.374Z,35.35
2022-12-17T22:25:18.009Z,35.92
2022-12-17T22:27:45.895Z,35.25
2022-12-17T22:30:33.919Z,37.38
2022-12-17T22:33:02.538Z,34.75
2022-12-17T22:37:18.843Z,35.70
2022-12-17T22:41:05.801Z,35.75
2022-12-17T22:44:36.168Z,34.38
2022-12-17T22:44:46.803Z,33.65
2022-12-17T22:47:16.494Z,34.13
2022-12-17T22:49:44.048Z,34.97
2022-12-17T22:52:14.607Z,35.20
2022-12-17T22:54:45.608Z,34.85
2022-12-17T22:57:36.229Z,34.08
2022-12-17T23:00:01.343Z,33.83
2022-12-17T23:02:28.829Z,33.80
2022-12-17T23:04:56.366Z,35.53
2022-12-17T23:07:29.921Z,34.13
2022-12-17T23:09:59.372Z,34.63
2022-12-17T23:12:45.811Z,33.50
2022-12-17T23:15:13.334Z,33.25
2022-12-17T23:17:40.908Z,31.85
2022-12-17T23:20:08.677Z,31.77
2022-12-17T23:22:36.370Z,31.20
2022-12-17T23:25:04.097Z,32.70
2022-12-17T23:27:31.834Z,33.47
2022-12-17T23:30:00.000Z,32.80
2022-12-17T23:32:27.574Z,33.03
2022-12-17T23:34:55.077Z,32.30
2022-12-17T23:37:22.579Z,33.35
2022-12-17T23:39:50.114Z,32.83
2022-12-17T23:42:18.491Z,32.33
2022-12-17T23:44:45.894Z,31.55
2022-12-17T23:47:13.461Z,32.00
2022-12-17T23:49:41.173Z,29.83
2022-12-17T23:52:09.403Z,30.95
2022-12-17T23:54:37.009Z,31.27
2022-12-17T23:57:05.117Z,30.42
2022-12-17T23:59:32.629Z,30.05
